createdAt,value
2022-11-20T00:01:40.086Z,6.47
2022-11-20T00:04:08.374Z,2.97
2022-11-20T00:06:36.557Z,7.67
2022-11-20T00:09:06.412Z,4.00
2022-11-20T00:11:34.810Z,5.50
2022-11-20T00:14:04.204Z,6.50
2022-11-20T00:16:57.994Z,3.93
2022-11-20T00:19:34.119Z,3.70
2022-11-20T00:22:02.338Z,6.13
2022-11-20T00:24:31.974Z,4.77
2022-11-20T00:27:00.156Z,5.27
2022-11-20T00:29:28.367Z,4.60
2022-11-20T00:31:56.671Z,4.43
2022-11-20T00:34:24.868Z,5.03
2022-11-20T00:36:53.101Z,7.87
2022-11-20T00:39:21.627Z,5.80
2022-11-20T00:41:51.472Z,4.57
2022-11-20T00:44:19.690Z,7.40
2022-11-20T00:46:47.953Z,5.17
2022-11-20T00:49:16.213Z,7.07
2022-11-20T00:51:44.409Z,4.90
2022-11-20T00:54:12.738Z,5.77
2022-11-20T00:56:41.153Z,5.00
2022-11-20T00:59:12.362Z,8.87
2022-11-20T01:01:40.945Z,5.30
2022-11-20T01:04:09.161Z,3.93
2022-11-20T01:06:39.951Z,3.53
2022-11-20T01:09:10.491Z,6.17
2022-11-20T01:12:06.968Z,5.30
2022-11-20T01:14:37.785Z,6.93
2022-11-20T01:17:05.967Z,4.10
2022-11-20T01:19:34.310Z,6.50
2022-11-20T01:22:02.531Z,5.17
2022-11-20T01:24:30.793Z,2.87
2022-11-20T01:26:59.071Z,3.80
2022-11-20T01:29:27.651Z,5.37
2022-11-20T01:31:57.215Z,5.07
2022-11-20T01:34:50.991Z,7.67
2022-11-20T01:37:34.537Z,5.90
2022-11-20T01:40:02.760Z,7.50
2022-11-20T01:42:48.707Z,6.27
2022-11-20T01:45:57.929Z,5.20
2022-11-20T01:48:32.004Z,6.43
2022-11-20T01:51:01.284Z,5.70
2022-11-20T01:53:34.331Z,4.80
2022-11-20T01:56:07.884Z,3.40
2022-11-20T01:58:39.512Z,7.13
2022-11-20T02:01:07.888Z,5.23
2022-11-20T02:03:38.381Z,7.53
2022-11-20T02:06:12.607Z,3.93
2022-11-20T02:08:41.421Z,4.53
2022-11-20T02:11:09.970Z,5.57
2022-11-20T02:13:46.490Z,3.40
2022-11-20T02:16:17.969Z,4.33
2022-11-20T02:18:48.825Z,4.27
2022-11-20T02:21:34.455Z,4.30
2022-11-20T02:24:06.523Z,3.43
2022-11-20T02:26:40.343Z,5.13
2022-11-20T02:29:08.762Z,2.33
2022-11-20T02:31:40.630Z,3.73
2022-11-20T02:34:08.930Z,3.40
2022-11-20T02:36:38.725Z,3.53
2022-11-20T02:39:08.645Z,3.13
2022-11-20T02:41:38.874Z,2.90
2022-11-20T02:44:10.344Z,6.07
2022-11-20T02:46:38.553Z,2.93
2022-11-20T02:49:07.584Z,2.93
2022-11-20T02:52:00.662Z,1.97
2022-11-20T02:54:30.269Z,3.77
2022-11-20T02:56:59.580Z,3.33
2022-11-20T02:59:52.779Z,2.67
2022-11-20T03:02:46.056Z,4.17
2022-11-20T03:05:14.352Z,5.70
2022-11-20T03:07:42.603Z,4.50
2022-11-20T03:10:12.680Z,2.73
2022-11-20T03:12:40.904Z,4.20
2022-11-20T03:15:10.159Z,4.93
2022-11-20T03:17:38.403Z,5.73
2022-11-20T03:20:08.066Z,2.03
2022-11-20T03:22:36.272Z,3.10
2022-11-20T03:25:05.055Z,4.60
2022-11-20T03:27:36.736Z,4.97
2022-11-20T03:30:06.519Z,5.17
2022-11-20T03:32:34.820Z,5.07
2022-11-20T03:35:03.086Z,5.03
2022-11-20T03:37:31.295Z,4.67
2022-11-20T03:39:59.540Z,3.20
2022-11-20T03:42:45.316Z,3.23
2022-11-20T03:45:15.367Z,5.00
2022-11-20T03:47:43.878Z,2.50
2022-11-20T03:50:14.549Z,5.43
2022-11-20T03:52:42.977Z,3.27
2022-11-20T03:55:11.893Z,1.97
2022-11-20T03:57:40.137Z,2.83
2022-11-20T04:00:09.448Z,4.57
2022-11-20T04:02:39.028Z,4.67
2022-11-20T04:05:08.106Z,3.43
2022-11-20T04:07:37.341Z,3.70
2022-11-20T04:10:06.202Z,4.73
2022-11-20T04:12:35.546Z,3.77
2022-11-20T04:15:03.864Z,8.10
2022-11-20T04:17:32.106Z,3.50
2022-11-20T04:20:01.697Z,3.13
2022-11-20T04:22:29.954Z,2.90
2022-11-20T04:24:58.149Z,3.67
2022-11-20T04:27:26.370Z,4.63
2022-11-20T04:29:54.620Z,4.20
2022-11-20T04:32:22.854Z,4.87
2022-11-20T04:34:51.071Z,2.73
2022-11-20T04:37:20.727Z,4.97
2022-11-20T04:39:48.945Z,4.60
2022-11-20T04:42:32.081Z,5.07
2022-11-20T04:45:00.792Z,3.20
2022-11-20T04:47:29.180Z,3.60
2022-11-20T04:49:57.538Z,2.97
2022-11-20T04:52:27.266Z,7.03
2022-11-20T04:55:21.046Z,3.63
2022-11-20T04:57:52.860Z,5.43
2022-11-20T05:00:21.296Z,4.83
2022-11-20T05:02:49.656Z,7.30
2022-11-20T05:05:17.963Z,5.30
2022-11-20T05:07:47.641Z,4.10
2022-11-20T05:10:16.036Z,6.50
2022-11-20T05:13:03.982Z,6.60
2022-11-20T05:15:35.396Z,6.23
2022-11-20T05:18:03.694Z,10.27
2022-11-20T05:20:31.891Z,4.77
2022-11-20T05:23:01.524Z,5.83
2022-11-20T05:25:29.961Z,6.00
2022-11-20T05:28:01.456Z,2.13
2022-11-20T05:30:29.679Z,3.23
2022-11-20T05:32:57.902Z,3.90
2022-11-20T05:35:26.089Z,3.57
2022-11-20T05:37:54.298Z,3.30
2022-11-20T05:40:23.883Z,7.57
2022-11-20T05:42:52.106Z,4.53
2022-11-20T05:45:20.423Z,6.97
2022-11-20T05:47:48.672Z,7.93
2022-11-20T05:50:17.148Z,7.60
2022-11-20T05:52:45.538Z,2.90
2022-11-20T05:55:13.740Z,6.03
2022-11-20T05:57:43.679Z,3.97
2022-11-20T06:00:13.208Z,5.17
2022-11-20T06:02:41.487Z,4.37
2022-11-20T06:05:10.492Z,5.17
2022-11-20T06:07:38.762Z,4.77
2022-11-20T06:10:07.615Z,6.37
2022-11-20T06:12:35.839Z,4.33
2022-11-20T06:15:05.919Z,3.07
2022-11-20T06:17:34.199Z,5.53
2022-11-20T06:20:02.389Z,5.07
2022-11-20T06:22:30.628Z,6.67
2022-11-20T06:24:58.850Z,4.03
2022-11-20T06:27:27.192Z,6.17
2022-11-20T06:29:58.560Z,3.47
2022-11-20T06:32:28.164Z,3.37
2022-11-20T06:34:56.368Z,3.30
2022-11-20T06:37:26.682Z,4.20
2022-11-20T06:39:54.920Z,4.53
2022-11-20T06:42:23.126Z,4.00
2022-11-20T06:44:53.523Z,3.23
2022-11-20T06:47:22.436Z,3.67
2022-11-20T06:49:52.040Z,3.30
2022-11-20T06:52:20.323Z,4.07
2022-11-20T06:54:48.535Z,5.03
2022-11-20T06:57:16.789Z,5.33
2022-11-20T07:00:11.095Z,5.03
2022-11-20T07:02:39.396Z,4.03
2022-11-20T07:05:09.331Z,3.60
2022-11-20T07:07:37.710Z,2.83
2022-11-20T07:10:06.913Z,3.87
2022-11-20T07:12:35.126Z,5.10
2022-11-20T07:15:03.451Z,7.47
2022-11-20T07:17:31.730Z,8.60
2022-11-20T07:19:59.932Z,6.80
2022-11-20T07:22:29.677Z,5.93
2022-11-20T07:24:57.916Z,3.97
2022-11-20T07:27:26.163Z,6.87
2022-11-20T07:29:54.355Z,5.17
2022-11-20T07:32:26.878Z,5.67
2022-11-20T07:34:55.163Z,8.00
2022-11-20T07:37:23.544Z,6.50
2022-11-20T07:39:53.136Z,2.60
2022-11-20T07:42:21.341Z,7.07
2022-11-20T07:44:49.580Z,5.37
2022-11-20T07:47:17.830Z,7.20
2022-11-20T07:49:46.037Z,4.77
2022-11-20T07:52:14.312Z,7.77
2022-11-20T07:54:42.573Z,10.73
2022-11-20T07:57:12.184Z,7.70
2022-11-20T07:59:40.985Z,7.93
2022-11-20T08:02:12.642Z,8.07
2022-11-20T08:04:40.917Z,8.03
2022-11-20T08:07:09.187Z,7.70
2022-11-20T08:09:37.432Z,5.83
2022-11-20T08:12:23.134Z,10.03
2022-11-20T08:14:52.780Z,7.37
2022-11-20T08:17:21.003Z,9.63
2022-11-20T08:19:49.168Z,9.83
2022-11-20T08:22:18.663Z,6.90
2022-11-20T08:24:46.895Z,6.50
2022-11-20T08:27:15.164Z,8.03
2022-11-20T08:29:43.370Z,9.57
2022-11-20T08:32:13.015Z,6.07
2022-11-20T08:34:46.112Z,6.20
2022-11-20T08:37:14.503Z,5.73
2022-11-20T08:40:33.660Z,4.97
2022-11-20T08:43:26.923Z,3.60
2022-11-20T08:45:55.172Z,8.10
2022-11-20T08:48:24.820Z,4.67
2022-11-20T08:50:53.091Z,4.70
2022-11-20T08:53:21.286Z,3.87
2022-11-20T08:55:49.506Z,8.03
2022-11-20T08:58:17.756Z,3.47
2022-11-20T09:00:46.082Z,6.27
2022-11-20T09:03:14.622Z,5.60
2022-11-20T09:05:44.940Z,4.40
2022-11-20T09:08:13.229Z,4.13
2022-11-20T09:10:41.695Z,4.37
2022-11-20T09:13:10.248Z,4.97
2022-11-20T09:15:38.473Z,3.47
2022-11-20T09:18:06.840Z,4.50
2022-11-20T09:20:35.052Z,4.87
2022-11-20T09:23:04.751Z,5.57
2022-11-20T09:25:32.973Z,4.53
2022-11-20T09:28:01.631Z,5.37
2022-11-20T09:30:30.284Z,4.70
2022-11-20T09:32:58.541Z,6.17
2022-11-20T09:35:26.846Z,5.40
2022-11-20T09:37:55.089Z,9.50
2022-11-20T09:40:26.413Z,4.77
2022-11-20T09:42:59.746Z,4.70
2022-11-20T09:45:41.212Z,6.67
2022-11-20T09:48:35.018Z,4.13
2022-11-20T09:51:08.203Z,4.33
2022-11-20T09:53:44.605Z,5.53
2022-11-20T09:56:18.355Z,4.97
2022-11-20T09:58:53.630Z,3.07
2022-11-20T10:01:23.688Z,5.33
2022-11-20T10:03:57.891Z,5.03
2022-11-20T10:06:31.705Z,7.00
2022-11-20T10:09:18.873Z,3.57
2022-11-20T10:11:59.088Z,7.73
2022-11-20T10:14:38.426Z,4.70
2022-11-20T10:17:18.930Z,5.33
2022-11-20T10:19:58.745Z,6.87
2022-11-20T10:22:47.555Z,5.60
2022-11-20T10:25:17.357Z,5.87
2022-11-20T10:28:06.152Z,7.80
2022-11-20T10:30:40.805Z,9.37
2022-11-20T10:33:17.523Z,10.37
2022-11-20T10:35:50.975Z,12.73
2022-11-20T10:38:23.806Z,8.93
2022-11-20T10:41:15.376Z,8.23
2022-11-20T10:43:46.470Z,10.60
2022-11-20T10:46:19.360Z,10.43
2022-11-20T10:48:48.378Z,6.27
2022-11-20T10:51:25.390Z,4.10
2022-11-20T10:54:00.879Z,3.87
2022-11-20T10:56:36.862Z,5.90
2022-11-20T10:59:37.594Z,2.27
2022-11-20T11:02:17.807Z,4.03
2022-11-20T11:04:48.865Z,1.03
2022-11-20T11:07:21.881Z,3.03
2022-11-20T11:09:53.004Z,4.00
2022-11-20T11:12:22.960Z,2.93
2022-11-20T11:14:55.447Z,1.70
2022-11-20T11:17:29.567Z,1.67
2022-11-20T11:20:07.703Z,1.93
2022-11-20T11:22:45.872Z,1.83
2022-11-20T11:25:26.117Z,4.83
2022-11-20T11:28:25.796Z,2.30
2022-11-20T11:30:55.812Z,3.27
2022-11-20T11:33:26.104Z,3.37
2022-11-20T11:35:58.031Z,3.10
2022-11-20T11:38:32.852Z,2.90
2022-11-20T11:41:01.614Z,5.70
2022-11-20T11:43:49.816Z,3.43
2022-11-20T11:46:32.978Z,2.63
2022-11-20T11:49:02.458Z,4.20
2022-11-20T11:51:37.000Z,5.13
2022-11-20T11:54:22.387Z,2.13
2022-11-20T11:56:51.587Z,2.67
2022-11-20T11:59:28.236Z,4.37
2022-11-20T12:02:02.710Z,3.43
2022-11-20T12:04:46.625Z,3.67
2022-11-20T12:07:45.513Z,2.57
2022-11-20T12:10:19.324Z,2.07
2022-11-20T12:12:50.269Z,3.10
2022-11-20T12:15:28.694Z,4.73
2022-11-20T12:17:58.539Z,2.10
2022-11-20T12:20:31.241Z,2.73
2022-11-20T12:23:10.000Z,5.13
2022-11-20T12:25:40.844Z,7.27
2022-11-20T12:28:39.899Z,7.57
2022-11-20T12:31:26.303Z,4.37
2022-11-20T12:34:15.147Z,2.37
2022-11-20T12:37:33.796Z,6.67
2022-11-20T12:40:12.852Z,3.50
2022-11-20T12:43:08.783Z,6.80
2022-11-20T12:45:58.976Z,3.77
2022-11-20T12:48:46.610Z,4.53
2022-11-20T12:51:31.127Z,5.07
2022-11-20T12:54:20.611Z,13.57
2022-11-20T12:57:03.609Z,6.20
2022-11-20T12:59:46.409Z,3.10
2022-11-20T13:02:26.452Z,1.80
2022-11-20T13:05:19.995Z,3.10
2022-11-20T13:07:53.348Z,2.97
2022-11-20T13:13:17.536Z,3.13
2022-11-20T13:16:04.446Z,5.57
2022-11-20T13:18:39.931Z,4.97
2022-11-20T13:21:20.338Z,5.37
2022-11-20T13:23:50.229Z,7.30
2022-11-20T13:26:21.846Z,3.33
2022-11-20T13:29:10.010Z,3.30
2022-11-20T13:31:44.918Z,2.17
2022-11-20T13:34:16.518Z,3.23
2022-11-20T13:36:52.735Z,3.87
2022-11-20T13:39:29.689Z,3.27
2022-11-20T13:42:00.013Z,3.53
2022-11-20T13:44:35.395Z,4.20
2022-11-20T13:47:03.845Z,4.50
2022-11-20T13:49:35.486Z,4.33
2022-11-20T13:52:39.313Z,6.97
2022-11-20T13:55:18.858Z,3.20
2022-11-20T13:58:06.142Z,3.53
2022-11-20T14:00:34.486Z,2.07
2022-11-20T14:03:13.234Z,2.87
2022-11-20T14:05:51.003Z,1.60
2022-11-20T14:08:28.751Z,2.03
2022-11-20T14:11:25.319Z,3.63
2022-11-20T14:13:59.154Z,2.00
2022-11-20T14:16:29.447Z,2.20
2022-11-20T14:18:58.749Z,4.40
2022-11-20T14:21:29.482Z,2.00
2022-11-20T14:24:06.404Z,2.27
2022-11-20T14:26:36.295Z,2.00
2022-11-20T14:29:04.578Z,1.93
2022-11-20T14:31:33.061Z,2.50
2022-11-20T14:34:01.368Z,1.77
2022-11-20T14:36:30.119Z,3.73
2022-11-20T14:38:58.438Z,1.90
2022-11-20T14:41:26.748Z,3.97
2022-11-20T14:43:59.020Z,1.40
2022-11-20T14:46:28.227Z,2.17
2022-11-20T14:48:58.115Z,3.33
2022-11-20T14:51:31.871Z,1.53
2022-11-20T14:54:13.564Z,3.33
2022-11-20T14:56:41.943Z,1.90
2022-11-20T14:59:11.857Z,1.40
2022-11-20T15:01:40.135Z,1.50
2022-11-20T15:04:11.244Z,1.60
2022-11-20T15:06:40.280Z,2.37
2022-11-20T15:09:17.083Z,2.10
2022-11-20T15:11:56.287Z,2.70
2022-11-20T15:14:50.818Z,1.87
2022-11-20T15:17:19.143Z,1.43
2022-11-20T15:19:47.407Z,2.07
2022-11-20T15:22:17.183Z,5.03
2022-11-20T15:24:45.384Z,4.67
2022-11-20T15:27:13.763Z,3.23
2022-11-20T15:29:42.856Z,3.67
2022-11-20T15:32:13.729Z,5.30
2022-11-20T15:34:42.241Z,3.37
2022-11-20T15:37:10.454Z,4.27
2022-11-20T15:39:38.692Z,3.20
2022-11-20T15:42:07.096Z,5.50
2022-11-20T15:44:35.398Z,4.57
2022-11-20T15:47:03.654Z,4.50
2022-11-20T15:49:33.312Z,5.23
2022-11-20T15:52:01.550Z,4.30
2022-11-20T15:54:29.818Z,5.03
2022-11-20T15:56:58.094Z,8.77
2022-11-20T15:59:26.327Z,5.63
2022-11-20T16:01:56.099Z,6.40
2022-11-20T16:04:24.678Z,6.60
2022-11-20T16:06:54.654Z,4.67
2022-11-20T16:09:22.885Z,2.97
2022-11-20T16:11:51.069Z,37.87
2022-11-20T16:14:36.832Z,22.90
2022-11-20T16:17:37.256Z,13.80
2022-11-20T16:20:06.286Z,10.40
2022-11-20T16:22:35.900Z,9.37
2022-11-20T16:25:05.219Z,5.40
2022-11-20T16:27:33.668Z,5.73
2022-11-20T16:30:02.030Z,4.10
2022-11-20T16:32:30.273Z,3.60
2022-11-20T16:34:58.487Z,2.60
2022-11-20T16:37:26.735Z,8.43
2022-11-20T16:39:57.333Z,5.03
2022-11-20T16:42:25.709Z,3.10
2022-11-20T16:44:54.194Z,3.73
2022-11-20T16:47:22.417Z,2.53
2022-11-20T16:49:50.707Z,2.33
2022-11-20T16:52:18.917Z,2.33
2022-11-20T16:54:47.092Z,4.17
2022-11-20T16:57:16.774Z,3.07
2022-11-20T16:59:45.016Z,3.83
2022-11-20T17:02:13.330Z,4.70
2022-11-20T17:04:41.607Z,2.30
2022-11-20T17:07:10.052Z,2.67
2022-11-20T17:09:38.322Z,2.83
2022-11-20T17:12:07.534Z,4.13
2022-11-20T17:14:38.482Z,3.90
2022-11-20T17:17:06.739Z,2.43
2022-11-20T17:19:34.940Z,2.40
2022-11-20T17:22:03.276Z,2.40
2022-11-20T17:24:32.140Z,2.90
2022-11-20T17:27:10.613Z,6.03
2022-11-20T17:29:42.184Z,4.23
2022-11-20T17:32:10.646Z,6.10
2022-11-20T17:34:38.829Z,4.63
2022-11-20T17:37:07.443Z,4.73
2022-11-20T17:39:36.059Z,4.63
2022-11-20T17:45:16.282Z,4.77
2022-11-20T17:47:46.499Z,8.00
2022-11-20T17:50:14.728Z,7.60
2022-11-20T17:52:43.040Z,7.50
2022-11-20T17:55:11.432Z,8.67
2022-11-20T17:57:59.427Z,12.13
2022-11-20T18:00:30.635Z,11.27
2022-11-20T18:02:59.127Z,10.90
2022-11-20T18:05:28.090Z,12.13
2022-11-20T18:07:56.392Z,14.63
2022-11-20T18:10:24.812Z,17.93
2022-11-20T18:12:53.863Z,17.47
2022-11-20T18:15:22.076Z,15.43
2022-11-20T18:17:51.649Z,21.00
2022-11-20T18:20:30.241Z,26.30
2022-11-20T18:23:00.310Z,22.67
2022-11-20T18:25:28.497Z,25.63
2022-11-20T18:27:56.740Z,24.73
2022-11-20T18:30:25.112Z,25.60
2022-11-20T18:32:55.503Z,18.47
2022-11-20T18:35:23.701Z,16.70
2022-11-20T18:37:51.921Z,17.50
2022-11-20T18:40:20.096Z,14.67
2022-11-20T18:43:05.900Z,13.83
2022-11-20T18:45:34.530Z,16.90
2022-11-20T18:48:04.790Z,12.90
2022-11-20T18:50:33.236Z,13.20
2022-11-20T18:53:01.527Z,9.60
2022-11-20T18:55:29.810Z,8.47
2022-11-20T18:57:58.017Z,7.93
2022-11-20T19:00:35.372Z,8.53
2022-11-20T19:03:05.185Z,20.60
2022-11-20T19:05:37.010Z,21.10
2022-11-20T19:08:05.665Z,12.43
2022-11-20T19:10:34.695Z,11.97
2022-11-20T19:13:02.926Z,5.90
2022-11-20T19:15:31.154Z,10.67
2022-11-20T19:18:01.294Z,4.53
2022-11-20T19:20:31.852Z,8.47
2022-11-20T19:23:01.586Z,8.70
2022-11-20T19:25:36.679Z,9.47
2022-11-20T19:28:06.516Z,10.57
2022-11-20T19:30:34.770Z,11.93
2022-11-20T19:33:03.111Z,14.97
2022-11-20T19:35:32.738Z,7.33
2022-11-20T19:38:05.328Z,6.23
2022-11-20T19:40:33.926Z,20.47
2022-11-20T19:43:02.108Z,5.33
2022-11-20T19:45:30.302Z,3.30
2022-11-20T19:48:07.971Z,4.70
2022-11-20T19:50:38.071Z,4.17
2022-11-20T19:53:07.489Z,8.13
2022-11-20T19:55:35.726Z,6.93
2022-11-20T19:58:04.977Z,11.67
2022-11-20T20:00:33.429Z,14.10
2022-11-20T20:03:02.591Z,5.97
2022-11-20T20:05:30.817Z,4.23
2022-11-20T20:08:00.441Z,5.83
2022-11-20T20:11:19.361Z,7.57
2022-11-20T20:13:48.556Z,12.50
2022-11-20T20:16:18.865Z,9.20
2022-11-20T20:18:47.372Z,12.50
2022-11-20T20:21:18.596Z,15.87
2022-11-20T20:23:52.360Z,14.17
2022-11-20T20:26:21.394Z,13.60
2022-11-20T20:28:49.649Z,15.30
2022-11-20T20:31:19.483Z,15.20
2022-11-20T20:34:12.698Z,14.33
2022-11-20T20:36:41.043Z,19.90
2022-11-20T20:39:12.346Z,19.63
2022-11-20T20:41:40.586Z,18.03
2022-11-20T20:44:26.334Z,22.03
2022-11-20T20:46:54.572Z,20.17
2022-11-20T20:49:23.081Z,20.20
2022-11-20T20:51:51.615Z,18.77
2022-11-20T20:54:21.372Z,18.13
2022-11-20T20:56:51.768Z,19.23
2022-11-20T20:59:20.042Z,18.00
2022-11-20T21:01:48.350Z,18.40
2022-11-20T21:04:16.601Z,19.00
2022-11-20T21:06:44.762Z,18.63
2022-11-20T21:09:13.058Z,19.03
2022-11-20T21:11:42.641Z,18.83
2022-11-20T21:14:10.897Z,16.73
2022-11-20T21:16:43.880Z,15.63
2022-11-20T21:19:12.294Z,16.00
2022-11-20T21:21:57.940Z,13.97
2022-11-20T21:24:26.576Z,13.60
2022-11-20T21:26:56.813Z,11.57
2022-11-20T21:29:26.562Z,13.13
2022-11-20T21:31:55.562Z,12.53
2022-11-20T21:34:24.589Z,12.20
2022-11-20T21:36:53.175Z,12.27
2022-11-20T21:39:22.913Z,13.77
2022-11-20T21:41:51.117Z,13.93
2022-11-20T21:44:35.849Z,13.60
2022-11-20T21:47:04.088Z,12.97
2022-11-20T21:49:32.344Z,12.40
2022-11-20T21:52:00.570Z,10.80
2022-11-20T21:54:28.757Z,10.67
2022-11-20T21:56:56.967Z,10.47
2022-11-20T21:59:26.926Z,9.87
2022-11-20T22:01:55.278Z,8.93
2022-11-20T22:04:24.648Z,11.20
2022-11-20T22:06:53.140Z,10.30
2022-11-20T22:09:21.338Z,11.50
2022-11-20T22:11:49.569Z,12.53
2022-11-20T22:14:23.470Z,20.40
2022-11-20T22:16:54.649Z,16.97
2022-11-20T22:19:24.284Z,13.73
2022-11-20T22:21:52.626Z,13.70
2022-11-20T22:24:22.191Z,8.23
2022-11-20T22:26:51.075Z,6.10
2022-11-20T22:29:21.898Z,8.13
2022-11-20T22:31:54.034Z,7.27
2022-11-20T22:34:22.633Z,8.13
2022-11-20T22:36:51.238Z,7.73
2022-11-20T22:39:21.867Z,8.20
2022-11-20T22:41:50.036Z,8.57
2022-11-20T22:44:18.428Z,9.77
2022-11-20T22:46:46.743Z,10.40
2022-11-20T22:49:16.301Z,9.13
2022-11-20T22:51:44.555Z,7.57
2022-11-20T22:54:47.426Z,6.77
2022-11-20T22:57:15.672Z,6.83
2022-11-20T22:59:43.848Z,5.90
2022-11-20T23:02:12.099Z,7.67
2022-11-20T23:04:41.689Z,7.93
2022-11-20T23:07:09.931Z,10.67
2022-11-20T23:09:38.160Z,8.90
2022-11-20T23:12:07.078Z,9.67
2022-11-20T23:14:35.294Z,7.57
2022-11-20T23:17:03.493Z,10.03
2022-11-20T23:19:31.711Z,9.47
2022-11-20T23:22:01.416Z,12.53
2022-11-20T23:24:29.806Z,12.37
2022-11-20T23:26:58.078Z,11.97
2022-11-20T23:29:26.338Z,10.53
2022-11-20T23:31:54.567Z,9.40
2022-11-20T23:34:22.787Z,9.87
2022-11-20T23:36:51.034Z,9.10
2022-11-20T23:39:20.599Z,10.03
2022-11-20T23:41:48.789Z,11.77
2022-11-20T23:44:17.056Z,12.07
2022-11-20T23:46:45.308Z,10.60
2022-11-20T23:49:13.546Z,10.27
2022-11-20T23:51:41.782Z,11.73
2022-11-20T23:54:10.077Z,10.10
2022-11-20T23:56:39.682Z,9.53
2022-11-20T23:59:08.339Z,9.20
